sensor_id;sensor_type;location;lat;lon;timestamp;temperature;humidity
69595;DHT22;56800;52.142;5.364;2024-03-25T00:02:09;5.80;85.20
69595;DHT22;56800;52.142;5.364;2024-03-25T00:04:53;5.80;85.20
69595;DHT22;56800;52.142;5.364;2024-03-25T00:07:38;5.80;85.20
69595;DHT22;56800;52.142;5.364;2024-03-25T00:10:05;5.80;85.10
69595;DHT22;56800;52.142;5.364;2024-03-25T00:12:37;5.80;85.10
69595;DHT22;56800;52.142;5.364;2024-03-25T00:15:03;5.80;85.20
69595;DHT22;56800;52.142;5.364;2024-03-25T00:17:29;5.80;84.70
69595;DHT22;56800;52.142;5.364;2024-03-25T00:19:55;5.80;85.30
69595;DHT22;56800;52.142;5.364;2024-03-25T00:22:22;5.80;85.30
69595;DHT22;56800;52.142;5.364;2024-03-25T00:24:48;5.80;86.00
69595;DHT22;56800;52.142;5.364;2024-03-25T00:27:15;5.80;85.20
69595;DHT22;56800;52.142;5.364;2024-03-25T00:29:41;5.70;85.20
69595;DHT22;56800;52.142;5.364;2024-03-25T00:32:07;5.80;85.20
69595;DHT22;56800;52.142;5.364;2024-03-25T00:34:34;5.70;85.10
69595;DHT22;56800;52.142;5.364;2024-03-25T00:37:00;5.70;85.20
69595;DHT22;56800;52.142;5.364;2024-03-25T00:39:26;5.70;85.20
69595;DHT22;56800;52.142;5.364;2024-03-25T00:41:53;5.70;85.20
69595;DHT22;56800;52.142;5.364;2024-03-25T00:44:19;5.70;85.20
69595;DHT22;56800;52.142;5.364;2024-03-25T00:46:45;5.70;85.20
69595;DHT22;56800;52.142;5.364;2024-03-25T00:49:12;5.70;85.20
69595;DHT22;56800;52.142;5.364;2024-03-25T00:51:38;5.70;85.20
69595;DHT22;56800;52.142;5.364;2024-03-25T00:54:04;5.70;85.10
69595;DHT22;56800;52.142;5.364;2024-03-25T00:56:31;5.60;85.00
69595;DHT22;56800;52.142;5.364;2024-03-25T00:58:57;5.60;85.10
69595;DHT22;56800;52.142;5.364;2024-03-25T01:01:31;5.60;85.20
69595;DHT22;56800;52.142;5.364;2024-03-25T01:03:57;5.60;85.20
69595;DHT22;56800;52.142;5.364;2024-03-25T01:06:23;5.60;85.20
69595;DHT22;56800;52.142;5.364;2024-03-25T01:08:50;5.60;85.10
69595;DHT22;56800;52.142;5.364;2024-03-25T01:11:16;5.60;85.10
69595;DHT22;56800;52.142;5.364;2024-03-25T01:13:41;5.60;85.10
69595;DHT22;56800;52.142;5.364;2024-03-25T01:16:08;5.50;85.10
69595;DHT22;56800;52.142;5.364;2024-03-25T01:18:34;5.50;85.00
69595;DHT22;56800;52.142;5.364;2024-03-25T01:21:00;5.50;85.00
69595;DHT22;56800;52.142;5.364;2024-03-25T01:23:25;5.50;85.10
69595;DHT22;56800;52.142;5.364;2024-03-25T01:25:51;5.50;85.20
69595;DHT22;56800;52.142;5.364;2024-03-25T01:28:17;5.50;85.10
69595;DHT22;56800;52.142;5.364;2024-03-25T01:30:43;5.50;85.10
69595;DHT22;56800;52.142;5.364;2024-03-25T01:33:09;5.40;85.00
69595;DHT22;56800;52.142;5.364;2024-03-25T01:35:35;5.40;85.00
69595;DHT22;56800;52.142;5.364;2024-03-25T01:38:01;5.40;85.10
69595;DHT22;56800;52.142;5.364;2024-03-25T01:40:26;5.30;85.00
69595;DHT22;56800;52.142;5.364;2024-03-25T01:42:59;5.30;85.00
69595;DHT22;56800;52.142;5.364;2024-03-25T01:45:30;5.30;85.10
69595;DHT22;56800;52.142;5.364;2024-03-25T01:48:02;5.30;85.10
69595;DHT22;56800;52.142;5.364;2024-03-25T01:50:29;5.30;85.10
69595;DHT22;56800;52.142;5.364;2024-03-25T01:52:56;5.20;85.00
69595;DHT22;56800;52.142;5.364;2024-03-25T01:55:25;5.20;85.00
69595;DHT22;56800;52.142;5.364;2024-03-25T01:57:52;5.20;85.10
69595;DHT22;56800;52.142;5.364;2024-03-25T02:00:18;5.20;85.00
69595;DHT22;56800;52.142;5.364;2024-03-25T02:02:44;5.10;84.90
69595;DHT22;56800;52.142;5.364;2024-03-25T02:05:12;5.10;84.80
69595;DHT22;56800;52.142;5.364;2024-03-25T02:07:38;5.10;84.70
69595;DHT22;56800;52.142;5.364;2024-03-25T02:10:05;5.00;84.70
69595;DHT22;56800;52.142;5.364;2024-03-25T02:12:31;5.00;84.70
69595;DHT22;56800;52.142;5.364;2024-03-25T02:14:58;4.90;84.70
69595;DHT22;56800;52.142;5.364;2024-03-25T02:17:24;4.90;84.70
69595;DHT22;56800;52.142;5.364;2024-03-25T02:19:50;4.90;84.60
69595;DHT22;56800;52.142;5.364;2024-03-25T02:22:16;4.90;84.80
69595;DHT22;56800;52.142;5.364;2024-03-25T02:24:45;4.80;84.70
69595;DHT22;56800;52.142;5.364;2024-03-25T02:27:11;4.80;84.80
69595;DHT22;56800;52.142;5.364;2024-03-25T02:29:40;4.80;84.90
69595;DHT22;56800;52.142;5.364;2024-03-25T02:32:07;4.80;84.90
69595;DHT22;56800;52.142;5.364;2024-03-25T02:34:37;4.70;84.90
69595;DHT22;56800;52.142;5.364;2024-03-25T02:37:04;4.70;84.90
69595;DHT22;56800;52.142;5.364;2024-03-25T02:39:29;4.70;84.90
69595;DHT22;56800;52.142;5.364;2024-03-25T02:41:56;4.70;84.90
69595;DHT22;56800;52.142;5.364;2024-03-25T02:44:23;4.70;85.00
69595;DHT22;56800;52.142;5.364;2024-03-25T02:46:49;4.70;85.00
69595;DHT22;56800;52.142;5.364;2024-03-25T02:49:15;4.60;85.60
69595;DHT22;56800;52.142;5.364;2024-03-25T02:51:41;4.60;85.00
69595;DHT22;56800;52.142;5.364;2024-03-25T02:54:06;4.60;85.10
69595;DHT22;56800;52.142;5.364;2024-03-25T02:56:34;4.60;85.20
69595;DHT22;56800;52.142;5.364;2024-03-25T02:59:00;4.50;85.10
69595;DHT22;56800;52.142;5.364;2024-03-25T03:01:26;4.50;85.20
69595;DHT22;56800;52.142;5.364;2024-03-25T03:03:52;4.50;85.20
69595;DHT22;56800;52.142;5.364;2024-03-25T03:06:18;4.50;85.20
69595;DHT22;56800;52.142;5.364;2024-03-25T03:08:44;4.50;85.20
69595;DHT22;56800;52.142;5.364;2024-03-25T03:11:10;4.50;85.30
69595;DHT22;56800;52.142;5.364;2024-03-25T03:13:36;4.60;85.50
69595;DHT22;56800;52.142;5.364;2024-03-25T03:16:02;4.60;85.50
69595;DHT22;56800;52.142;5.364;2024-03-25T03:18:28;4.60;85.50
69595;DHT22;56800;52.142;5.364;2024-03-25T03:20:53;4.60;85.50
69595;DHT22;56800;52.142;5.364;2024-03-25T03:23:22;4.50;85.50
69595;DHT22;56800;52.142;5.364;2024-03-25T03:25:48;4.60;85.60
69595;DHT22;56800;52.142;5.364;2024-03-25T03:28:14;4.60;85.50
69595;DHT22;56800;52.142;5.364;2024-03-25T03:30:41;4.60;85.50
69595;DHT22;56800;52.142;5.364;2024-03-25T03:33:06;4.60;85.50
69595;DHT22;56800;52.142;5.364;2024-03-25T03:35:33;4.60;85.40
69595;DHT22;56800;52.142;5.364;2024-03-25T03:37:59;4.60;85.50
69595;DHT22;56800;52.142;5.364;2024-03-25T03:40:24;4.60;85.40
69595;DHT22;56800;52.142;5.364;2024-03-25T03:42:50;4.60;85.40
69595;DHT22;56800;52.142;5.364;2024-03-25T03:45:16;4.50;85.30
69595;DHT22;56800;52.142;5.364;2024-03-25T03:47:42;4.50;85.20
69595;DHT22;56800;52.142;5.364;2024-03-25T03:50:08;4.50;86.00
69595;DHT22;56800;52.142;5.364;2024-03-25T03:52:33;4.50;85.20
69595;DHT22;56800;52.142;5.364;2024-03-25T03:54:59;4.50;85.30
69595;DHT22;56800;52.142;5.364;2024-03-25T03:57:25;4.40;85.20
69595;DHT22;56800;52.142;5.364;2024-03-25T03:59:52;4.40;85.20
69595;DHT22;56800;52.142;5.364;2024-03-25T04:02:18;4.40;85.30
69595;DHT22;56800;52.142;5.364;2024-03-25T04:04:44;4.40;85.40
69595;DHT22;56800;52.142;5.364;2024-03-25T04:07:10;4.40;85.50
69595;DHT22;56800;52.142;5.364;2024-03-25T04:09:35;4.40;85.50
69595;DHT22;56800;52.142;5.364;2024-03-25T04:12:01;4.50;85.50
69595;DHT22;56800;52.142;5.364;2024-03-25T04:14:27;4.50;85.50
69595;DHT22;56800;52.142;5.364;2024-03-25T04:16:53;4.40;85.40
69595;DHT22;56800;52.142;5.364;2024-03-25T04:19:23;4.40;85.40
69595;DHT22;56800;52.142;5.364;2024-03-25T04:21:48;4.40;85.40
69595;DHT22;56800;52.142;5.364;2024-03-25T04:24:14;4.40;85.50
69595;DHT22;56800;52.142;5.364;2024-03-25T04:26:40;4.40;85.70
69595;DHT22;56800;52.142;5.364;2024-03-25T04:29:06;4.40;85.70
69595;DHT22;56800;52.142;5.364;2024-03-25T04:31:32;4.50;85.80
69595;DHT22;56800;52.142;5.364;2024-03-25T04:33:57;4.50;85.90
69595;DHT22;56800;52.142;5.364;2024-03-25T04:36:23;4.50;85.80
69595;DHT22;56800;52.142;5.364;2024-03-25T04:38:49;4.40;85.90
69595;DHT22;56800;52.142;5.364;2024-03-25T04:41:15;4.50;85.90
69595;DHT22;56800;52.142;5.364;2024-03-25T04:43:41;4.40;85.90
69595;DHT22;56800;52.142;5.364;2024-03-25T04:46:06;4.40;86.00
69595;DHT22;56800;52.142;5.364;2024-03-25T04:48:32;4.50;86.10
69595;DHT22;56800;52.142;5.364;2024-03-25T04:50:58;4.50;86.10
69595;DHT22;56800;52.142;5.364;2024-03-25T04:53:24;4.50;86.10
69595;DHT22;56800;52.142;5.364;2024-03-25T04:55:49;4.50;86.00
69595;DHT22;56800;52.142;5.364;2024-03-25T04:58:15;4.40;85.90
69595;DHT22;56800;52.142;5.364;2024-03-25T05:00:41;4.50;86.00
69595;DHT22;56800;52.142;5.364;2024-03-25T05:03:07;4.40;86.00
69595;DHT22;56800;52.142;5.364;2024-03-25T05:05:32;4.40;86.00
69595;DHT22;56800;52.142;5.364;2024-03-25T05:07:58;4.40;86.00
69595;DHT22;56800;52.142;5.364;2024-03-25T05:10:24;4.40;85.90
69595;DHT22;56800;52.142;5.364;2024-03-25T05:12:49;4.40;86.20
69595;DHT22;56800;52.142;5.364;2024-03-25T05:15:15;4.30;85.80
69595;DHT22;56800;52.142;5.364;2024-03-25T05:17:41;4.30;85.90
69595;DHT22;56800;52.142;5.364;2024-03-25T05:20:07;4.30;86.00
69595;DHT22;56800;52.142;5.364;2024-03-25T05:22:34;4.30;86.00
69595;DHT22;56800;52.142;5.364;2024-03-25T05:25:00;4.30;85.80
69595;DHT22;56800;52.142;5.364;2024-03-25T05:27:26;4.30;85.90
69595;DHT22;56800;52.142;5.364;2024-03-25T05:29:52;4.30;86.00
69595;DHT22;56800;52.142;5.364;2024-03-25T05:32:18;4.30;86.00
69595;DHT22;56800;52.142;5.364;2024-03-25T05:34:47;4.30;86.00
69595;DHT22;56800;52.142;5.364;2024-03-25T05:37:14;4.30;86.10
69595;DHT22;56800;52.142;5.364;2024-03-25T05:39:39;4.30;86.10
69595;DHT22;56800;52.142;5.364;2024-03-25T05:42:05;4.30;86.10
69595;DHT22;56800;52.142;5.364;2024-03-25T05:44:31;4.30;86.10
69595;DHT22;56800;52.142;5.364;2024-03-25T05:46:57;4.30;86.20
69595;DHT22;56800;52.142;5.364;2024-03-25T05:49:23;4.30;86.20
69595;DHT22;56800;52.142;5.364;2024-03-25T05:51:49;4.30;86.30
69595;DHT22;56800;52.142;5.364;2024-03-25T05:54:14;4.30;86.30
69595;DHT22;56800;52.142;5.364;2024-03-25T05:56:40;4.30;86.20
69595;DHT22;56800;52.142;5.364;2024-03-25T05:59:06;4.30;86.20
69595;DHT22;56800;52.142;5.364;2024-03-25T06:01:32;4.30;86.20
69595;DHT22;56800;52.142;5.364;2024-03-25T06:03:59;4.30;86.20
69595;DHT22;56800;52.142;5.364;2024-03-25T06:06:25;4.30;86.20
69595;DHT22;56800;52.142;5.364;2024-03-25T06:08:50;4.30;86.30
69595;DHT22;56800;52.142;5.364;2024-03-25T06:11:16;4.30;86.40
69595;DHT22;56800;52.142;5.364;2024-03-25T06:13:46;4.40;86.50
69595;DHT22;56800;52.142;5.364;2024-03-25T06:16:13;4.40;86.40
69595;DHT22;56800;52.142;5.364;2024-03-25T06:18:39;4.40;86.40
69595;DHT22;56800;52.142;5.364;2024-03-25T06:21:06;4.40;86.40
69595;DHT22;56800;52.142;5.364;2024-03-25T06:23:32;4.40;86.30
69595;DHT22;56800;52.142;5.364;2024-03-25T06:25:58;4.40;86.30
69595;DHT22;56800;52.142;5.364;2024-03-25T06:28:24;4.40;86.40
69595;DHT22;56800;52.142;5.364;2024-03-25T06:30:51;4.50;86.50
69595;DHT22;56800;52.142;5.364;2024-03-25T06:33:36;4.50;86.50
69595;DHT22;56800;52.142;5.364;2024-03-25T06:36:20;4.50;86.50
69595;DHT22;56800;52.142;5.364;2024-03-25T06:38:46;4.60;86.80
69595;DHT22;56800;52.142;5.364;2024-03-25T06:41:12;4.60;86.90
69595;DHT22;56800;52.142;5.364;2024-03-25T06:43:39;4.70;87.00
69595;DHT22;56800;52.142;5.364;2024-03-25T06:46:05;4.80;87.10
69595;DHT22;56800;52.142;5.364;2024-03-25T06:48:32;4.90;87.00
69595;DHT22;56800;52.142;5.364;2024-03-25T06:50:58;4.90;86.90
69595;DHT22;56800;52.142;5.364;2024-03-25T06:53:25;5.00;86.90
69595;DHT22;56800;52.142;5.364;2024-03-25T06:55:54;5.10;86.80
69595;DHT22;56800;52.142;5.364;2024-03-25T06:58:21;5.10;86.80
69595;DHT22;56800;52.142;5.364;2024-03-25T07:00:47;5.20;87.30
69595;DHT22;56800;52.142;5.364;2024-03-25T07:03:17;5.30;87.10
69595;DHT22;56800;52.142;5.364;2024-03-25T07:05:47;5.40;86.80
69595;DHT22;56800;52.142;5.364;2024-03-25T07:08:14;5.50;86.50
69595;DHT22;56800;52.142;5.364;2024-03-25T07:10:43;5.50;86.50
69595;DHT22;56800;52.142;5.364;2024-03-25T07:13:09;5.60;86.50
69595;DHT22;56800;52.142;5.364;2024-03-25T07:15:35;5.60;86.50
69595;DHT22;56800;52.142;5.364;2024-03-25T07:18:00;5.70;86.60
69595;DHT22;56800;52.142;5.364;2024-03-25T07:20:26;5.70;86.50
69595;DHT22;56800;52.142;5.364;2024-03-25T07:22:53;5.80;86.60
69595;DHT22;56800;52.142;5.364;2024-03-25T07:25:21;5.90;86.60
69595;DHT22;56800;52.142;5.364;2024-03-25T07:27:47;6.00;86.70
69595;DHT22;56800;52.142;5.364;2024-03-25T07:30:14;6.00;86.70
69595;DHT22;56800;52.142;5.364;2024-03-25T07:32:40;6.10;86.70
69595;DHT22;56800;52.142;5.364;2024-03-25T07:35:06;6.30;86.90
69595;DHT22;56800;52.142;5.364;2024-03-25T07:37:33;6.40;87.70
69595;DHT22;56800;52.142;5.364;2024-03-25T07:39:59;6.60;87.40
69595;DHT22;56800;52.142;5.364;2024-03-25T07:42:25;6.80;87.70
69595;DHT22;56800;52.142;5.364;2024-03-25T07:44:51;7.30;88.70
69595;DHT22;56800;52.142;5.364;2024-03-25T07:47:17;7.90;88.00
69595;DHT22;56800;52.142;5.364;2024-03-25T07:49:42;8.40;86.10
69595;DHT22;56800;52.142;5.364;2024-03-25T07:52:08;8.70;84.70
69595;DHT22;56800;52.142;5.364;2024-03-25T07:54:34;8.70;83.00
69595;DHT22;56800;52.142;5.364;2024-03-25T07:57:02;8.60;82.70
69595;DHT22;56800;52.142;5.364;2024-03-25T07:59:29;8.60;82.80
69595;DHT22;56800;52.142;5.364;2024-03-25T08:01:54;8.50;82.90
69595;DHT22;56800;52.142;5.364;2024-03-25T08:04:20;8.60;83.90
69595;DHT22;56800;52.142;5.364;2024-03-25T08:06:46;8.60;83.00
69595;DHT22;56800;52.142;5.364;2024-03-25T08:09:12;8.70;83.30
69595;DHT22;56800;52.142;5.364;2024-03-25T08:11:39;8.80;83.40
69595;DHT22;56800;52.142;5.364;2024-03-25T08:14:05;8.90;82.40
69595;DHT22;56800;52.142;5.364;2024-03-25T08:16:31;9.00;82.50
69595;DHT22;56800;52.142;5.364;2024-03-25T08:18:56;9.10;82.50
69595;DHT22;56800;52.142;5.364;2024-03-25T08:21:23;9.20;82.10
69595;DHT22;56800;52.142;5.364;2024-03-25T08:23:48;9.30;81.80
69595;DHT22;56800;52.142;5.364;2024-03-25T08:26:14;9.40;81.90
69595;DHT22;56800;52.142;5.364;2024-03-25T08:28:40;9.70;82.00
69595;DHT22;56800;52.142;5.364;2024-03-25T08:31:06;10.00;81.60
69595;DHT22;56800;52.142;5.364;2024-03-25T08:33:31;10.30;80.90
69595;DHT22;56800;52.142;5.364;2024-03-25T08:35:57;10.60;80.60
69595;DHT22;56800;52.142;5.364;2024-03-25T08:38:23;11.00;79.80
69595;DHT22;56800;52.142;5.364;2024-03-25T08:40:51;11.30;79.00
69595;DHT22;56800;52.142;5.364;2024-03-25T08:43:17;11.60;78.30
69595;DHT22;56800;52.142;5.364;2024-03-25T08:45:46;12.10;77.50
69595;DHT22;56800;52.142;5.364;2024-03-25T08:48:12;12.80;76.70
69595;DHT22;56800;52.142;5.364;2024-03-25T08:50:38;13.20;74.10
69595;DHT22;56800;52.142;5.364;2024-03-25T08:53:04;13.50;72.00
69595;DHT22;56800;52.142;5.364;2024-03-25T08:55:30;13.50;72.00
69595;DHT22;56800;52.142;5.364;2024-03-25T08:57:59;13.60;71.80
69595;DHT22;56800;52.142;5.364;2024-03-25T09:00:29;13.70;70.80
69595;DHT22;56800;52.142;5.364;2024-03-25T09:02:54;14.20;71.30
69595;DHT22;56800;52.142;5.364;2024-03-25T09:05:21;14.80;69.30
69595;DHT22;56800;52.142;5.364;2024-03-25T09:07:50;15.40;69.30
69595;DHT22;56800;52.142;5.364;2024-03-25T09:10:18;16.20;68.50
69595;DHT22;56800;52.142;5.364;2024-03-25T09:13:02;16.30;65.20
69595;DHT22;56800;52.142;5.364;2024-03-25T09:15:29;16.20;65.50
69595;DHT22;56800;52.142;5.364;2024-03-25T09:17:55;16.20;64.80
69595;DHT22;56800;52.142;5.364;2024-03-25T09:20:21;16.40;65.00
69595;DHT22;56800;52.142;5.364;2024-03-25T09:22:47;16.80;64.60
69595;DHT22;56800;52.142;5.364;2024-03-25T09:25:15;16.90;62.90
69595;DHT22;56800;52.142;5.364;2024-03-25T09:27:41;16.90;63.70
69595;DHT22;56800;52.142;5.364;2024-03-25T09:30:12;16.90;63.70
69595;DHT22;56800;52.142;5.364;2024-03-25T09:32:38;16.70;62.60
69595;DHT22;56800;52.142;5.364;2024-03-25T09:35:04;16.60;62.60
69595;DHT22;56800;52.142;5.364;2024-03-25T09:37:30;16.50;62.50
69595;DHT22;56800;52.142;5.364;2024-03-25T09:39:58;16.30;62.30
69595;DHT22;56800;52.142;5.364;2024-03-25T09:42:31;16.50;63.00
69595;DHT22;56800;52.142;5.364;2024-03-25T09:44:59;16.70;62.00
69595;DHT22;56800;52.142;5.364;2024-03-25T09:47:25;16.60;61.70
69595;DHT22;56800;52.142;5.364;2024-03-25T09:49:52;16.30;61.00
69595;DHT22;56800;52.142;5.364;2024-03-25T09:52:20;16.00;62.10
69595;DHT22;56800;52.142;5.364;2024-03-25T09:54:45;15.60;62.10
69595;DHT22;56800;52.142;5.364;2024-03-25T09:57:12;15.20;62.30
69595;DHT22;56800;52.142;5.364;2024-03-25T09:59:39;14.90;62.80
69595;DHT22;56800;52.142;5.364;2024-03-25T10:02:05;14.50;63.20
69595;DHT22;56800;52.142;5.364;2024-03-25T10:04:33;14.50;64.80
69595;DHT22;56800;52.142;5.364;2024-03-25T10:06:59;14.80;65.30
69595;DHT22;56800;52.142;5.364;2024-03-25T10:09:25;15.20;64.70
69595;DHT22;56800;52.142;5.364;2024-03-25T10:11:53;15.30;63.50
69595;DHT22;56800;52.142;5.364;2024-03-25T10:14:19;15.20;62.50
69595;DHT22;56800;52.142;5.364;2024-03-25T10:16:45;15.00;62.30
69595;DHT22;56800;52.142;5.364;2024-03-25T10:19:11;14.80;62.20
69595;DHT22;56800;52.142;5.364;2024-03-25T10:21:37;14.70;62.40
69595;DHT22;56800;52.142;5.364;2024-03-25T10:24:06;14.50;63.20
69595;DHT22;56800;52.142;5.364;2024-03-25T10:26:33;14.50;62.70
69595;DHT22;56800;52.142;5.364;2024-03-25T10:29:05;14.40;63.10
69595;DHT22;56800;52.142;5.364;2024-03-25T10:31:36;14.30;63.00
69595;DHT22;56800;52.142;5.364;2024-03-25T10:34:02;14.30;63.30
69595;DHT22;56800;52.142;5.364;2024-03-25T10:36:28;14.40;63.60
69595;DHT22;56800;52.142;5.364;2024-03-25T10:38:57;14.30;62.90
69595;DHT22;56800;52.142;5.364;2024-03-25T10:41:23;14.30;62.80
69595;DHT22;56800;52.142;5.364;2024-03-25T10:43:52;14.20;63.00
69595;DHT22;56800;52.142;5.364;2024-03-25T10:46:20;14.20;63.20
69595;DHT22;56800;52.142;5.364;2024-03-25T10:49:13;14.20;63.10
69595;DHT22;56800;52.142;5.364;2024-03-25T10:51:41;14.20;62.40
69595;DHT22;56800;52.142;5.364;2024-03-25T10:54:07;14.20;62.40
69595;DHT22;56800;52.142;5.364;2024-03-25T10:56:33;14.30;62.20
69595;DHT22;56800;52.142;5.364;2024-03-25T10:59:00;14.30;62.00
69595;DHT22;56800;52.142;5.364;2024-03-25T11:01:28;14.30;62.10
69595;DHT22;56800;52.142;5.364;2024-03-25T11:03:55;14.30;62.00
69595;DHT22;56800;52.142;5.364;2024-03-25T11:06:21;14.50;62.50
69595;DHT22;56800;52.142;5.364;2024-03-25T11:08:56;14.60;61.60
69595;DHT22;56800;52.142;5.364;2024-03-25T11:11:23;14.60;60.80
69595;DHT22;56800;52.142;5.364;2024-03-25T11:13:49;14.50;60.80
69595;DHT22;56800;52.142;5.364;2024-03-25T11:16:28;14.50;61.10
69595;DHT22;56800;52.142;5.364;2024-03-25T11:18:54;14.60;61.00
69595;DHT22;56800;52.142;5.364;2024-03-25T11:21:26;14.60;60.80
69595;DHT22;56800;52.142;5.364;2024-03-25T11:23:52;14.60;60.20
69595;DHT22;56800;52.142;5.364;2024-03-25T11:26:27;14.50;60.80
69595;DHT22;56800;52.142;5.364;2024-03-25T11:28:54;14.60;61.10
69595;DHT22;56800;52.142;5.364;2024-03-25T11:31:21;14.80;61.20
69595;DHT22;56800;52.142;5.364;2024-03-25T11:33:50;15.00;60.70
69595;DHT22;56800;52.142;5.364;2024-03-25T11:36:15;15.10;60.20
69595;DHT22;56800;52.142;5.364;2024-03-25T11:38:44;15.10;60.00
69595;DHT22;56800;52.142;5.364;2024-03-25T11:41:13;15.10;59.90
69595;DHT22;56800;52.142;5.364;2024-03-25T11:43:41;15.10;59.90
69595;DHT22;56800;52.142;5.364;2024-03-25T11:46:07;15.10;59.90
69595;DHT22;56800;52.142;5.364;2024-03-25T11:48:33;15.00;58.90
69595;DHT22;56800;52.142;5.364;2024-03-25T11:50:59;14.90;59.10
69595;DHT22;56800;52.142;5.364;2024-03-25T11:53:26;14.70;59.30
69595;DHT22;56800;52.142;5.364;2024-03-25T11:55:53;14.60;58.70
69595;DHT22;56800;52.142;5.364;2024-03-25T11:58:19;14.70;60.10
69595;DHT22;56800;52.142;5.364;2024-03-25T12:00:45;14.80;59.80
69595;DHT22;56800;52.142;5.364;2024-03-25T12:03:15;14.90;59.50
69595;DHT22;56800;52.142;5.364;2024-03-25T12:05:44;15.00;59.50
69595;DHT22;56800;52.142;5.364;2024-03-25T12:08:10;14.80;59.00
69595;DHT22;56800;52.142;5.364;2024-03-25T12:10:38;14.70;59.30
69595;DHT22;56800;52.142;5.364;2024-03-25T12:13:23;14.50;58.20
69595;DHT22;56800;52.142;5.364;2024-03-25T12:15:53;14.40;58.80
69595;DHT22;56800;52.142;5.364;2024-03-25T12:18:20;14.30;58.90
69595;DHT22;56800;52.142;5.364;2024-03-25T12:20:45;14.30;59.00
69595;DHT22;56800;52.142;5.364;2024-03-25T12:23:11;14.40;60.10
69595;DHT22;56800;52.142;5.364;2024-03-25T12:25:37;14.40;59.40
69595;DHT22;56800;52.142;5.364;2024-03-25T12:28:10;14.40;59.40
69595;DHT22;56800;52.142;5.364;2024-03-25T12:30:50;14.40;59.00
69595;DHT22;56800;52.142;5.364;2024-03-25T12:33:17;14.40;59.60
69595;DHT22;56800;52.142;5.364;2024-03-25T12:35:46;14.50;58.10
69595;DHT22;56800;52.142;5.364;2024-03-25T12:38:22;14.60;57.10
69595;DHT22;56800;52.142;5.364;2024-03-25T12:40:48;14.40;56.40
69595;DHT22;56800;52.142;5.364;2024-03-25T12:43:15;14.30;56.90
69595;DHT22;56800;52.142;5.364;2024-03-25T12:45:41;14.40;57.80
69595;DHT22;56800;52.142;5.364;2024-03-25T12:48:09;14.60;57.00
69595;DHT22;56800;52.142;5.364;2024-03-25T12:50:35;14.60;56.80
69595;DHT22;56800;52.142;5.364;2024-03-25T12:53:01;14.50;55.80
69595;DHT22;56800;52.142;5.364;2024-03-25T12:55:31;14.40;55.90
69595;DHT22;56800;52.142;5.364;2024-03-25T12:57:57;14.30;55.80
69595;DHT22;56800;52.142;5.364;2024-03-25T13:00:23;14.20;55.90
69595;DHT22;56800;52.142;5.364;2024-03-25T13:02:49;14.10;56.30
69595;DHT22;56800;52.142;5.364;2024-03-25T13:05:15;14.20;56.80
69595;DHT22;56800;52.142;5.364;2024-03-25T13:07:41;14.30;57.40
69595;DHT22;56800;52.142;5.364;2024-03-25T13:10:07;14.30;58.20
69595;DHT22;56800;52.142;5.364;2024-03-25T13:12:33;14.40;57.80
69595;DHT22;56800;52.142;5.364;2024-03-25T13:14:58;14.40;56.60
69595;DHT22;56800;52.142;5.364;2024-03-25T13:17:25;14.50;55.90
69595;DHT22;56800;52.142;5.364;2024-03-25T13:19:50;14.50;55.10
69595;DHT22;56800;52.142;5.364;2024-03-25T13:22:16;14.50;54.70
69595;DHT22;56800;52.142;5.364;2024-03-25T13:24:42;14.40;55.00
69595;DHT22;56800;52.142;5.364;2024-03-25T13:27:08;14.30;55.20
69595;DHT22;56800;52.142;5.364;2024-03-25T13:29:34;14.30;54.80
69595;DHT22;56800;52.142;5.364;2024-03-25T13:32:03;14.20;55.20
69595;DHT22;56800;52.142;5.364;2024-03-25T13:34:29;14.10;54.70
69595;DHT22;56800;52.142;5.364;2024-03-25T13:36:55;14.10;54.80
69595;DHT22;56800;52.142;5.364;2024-03-25T13:39:21;14.10;55.40
69595;DHT22;56800;52.142;5.364;2024-03-25T13:41:46;14.40;55.50
69595;DHT22;56800;52.142;5.364;2024-03-25T13:44:12;14.80;55.20
69595;DHT22;56800;52.142;5.364;2024-03-25T13:46:38;15.00;53.90
69595;DHT22;56800;52.142;5.364;2024-03-25T13:49:04;15.10;53.30
69595;DHT22;56800;52.142;5.364;2024-03-25T13:51:30;15.00;53.30
69595;DHT22;56800;52.142;5.364;2024-03-25T13:53:55;14.90;53.20
69595;DHT22;56800;52.142;5.364;2024-03-25T13:56:21;14.80;53.70
69595;DHT22;56800;52.142;5.364;2024-03-25T13:58:47;14.80;54.00
69595;DHT22;56800;52.142;5.364;2024-03-25T14:01:13;14.70;54.00
69595;DHT22;56800;52.142;5.364;2024-03-25T14:03:38;14.90;54.70
69595;DHT22;56800;52.142;5.364;2024-03-25T14:06:04;15.00;54.60
69595;DHT22;56800;52.142;5.364;2024-03-25T14:08:30;14.90;54.20
69595;DHT22;56800;52.142;5.364;2024-03-25T14:10:59;14.80;54.40
69595;DHT22;56800;52.142;5.364;2024-03-25T14:13:25;14.80;54.00
69595;DHT22;56800;52.142;5.364;2024-03-25T14:15:51;14.70;54.20
69595;DHT22;56800;52.142;5.364;2024-03-25T14:18:17;14.60;54.30
69595;DHT22;56800;52.142;5.364;2024-03-25T14:20:43;14.60;54.10
69595;DHT22;56800;52.142;5.364;2024-03-25T14:23:09;14.50;54.50
69595;DHT22;56800;52.142;5.364;2024-03-25T14:25:35;14.50;54.70
69595;DHT22;56800;52.142;5.364;2024-03-25T14:28:01;14.50;54.50
69595;DHT22;56800;52.142;5.364;2024-03-25T14:30:27;14.60;54.40
69595;DHT22;56800;52.142;5.364;2024-03-25T14:32:52;14.70;54.70
69595;DHT22;56800;52.142;5.364;2024-03-25T14:35:21;14.80;54.40
69595;DHT22;56800;52.142;5.364;2024-03-25T14:37:47;14.80;53.40
69595;DHT22;56800;52.142;5.364;2024-03-25T14:40:14;14.70;52.50
69595;DHT22;56800;52.142;5.364;2024-03-25T14:42:40;14.60;52.20
69595;DHT22;56800;52.142;5.364;2024-03-25T14:45:06;14.60;51.30
69595;DHT22;56800;52.142;5.364;2024-03-25T14:47:32;14.60;51.70
69595;DHT22;56800;52.142;5.364;2024-03-25T14:49:58;14.70;52.20
69595;DHT22;56800;52.142;5.364;2024-03-25T14:52:24;14.80;52.30
69595;DHT22;56800;52.142;5.364;2024-03-25T14:54:50;14.90;52.40
69595;DHT22;56800;52.142;5.364;2024-03-25T14:57:16;15.00;52.40
69595;DHT22;56800;52.142;5.364;2024-03-25T14:59:42;15.10;52.20
69595;DHT22;56800;52.142;5.364;2024-03-25T15:02:08;15.20;51.50
69595;DHT22;56800;52.142;5.364;2024-03-25T15:04:38;15.30;51.00
69595;DHT22;56800;52.142;5.364;2024-03-25T15:07:13;15.20;50.70
69595;DHT22;56800;52.142;5.364;2024-03-25T15:09:39;15.20;51.60
69595;DHT22;56800;52.142;5.364;2024-03-25T15:12:05;15.20;51.10
69595;DHT22;56800;52.142;5.364;2024-03-25T15:14:31;15.10;50.70
69595;DHT22;56800;52.142;5.364;2024-03-25T15:16:57;15.00;49.70
69595;DHT22;56800;52.142;5.364;2024-03-25T15:19:26;14.80;50.10
69595;DHT22;56800;52.142;5.364;2024-03-25T15:21:52;14.70;50.30
69595;DHT22;56800;52.142;5.364;2024-03-25T15:24:18;14.60;50.70
69595;DHT22;56800;52.142;5.364;2024-03-25T15:26:43;14.40;51.30
69595;DHT22;56800;52.142;5.364;2024-03-25T15:29:09;14.40;51.60
69595;DHT22;56800;52.142;5.364;2024-03-25T15:31:35;14.30;52.00
69595;DHT22;56800;52.142;5.364;2024-03-25T15:34:01;14.20;51.90
69595;DHT22;56800;52.142;5.364;2024-03-25T15:36:27;14.20;52.40
69595;DHT22;56800;52.142;5.364;2024-03-25T15:38:54;14.30;52.00